Portada
METAR-TAF:

METAR-TAF

Aeropuertos :

Şırnak, Turquía

latitud: 37-21-50N, longitud: 42-03-36E, altitud: 621 m

Observación

El informe se hizo hace 1 hora y 4 minutos, a las 10:50 UTC
Viento 6 kt con dirección variable
Temperatura 39°C
Humedad 15%
Presión 999 hPa
Visibilidad 10 km o más
Escasas nubes a una altura de 4000 ft
Nubes dispersas a una altura de 10000 ft

METAR: LTCV 191050Z VRB06KT 9999 FEW040 SCT100 39/08 Q0999

Hora: 14:54 (11:54 UTC)

Pronóstico

El informe se hizo hace 1 hora y 14 minutos, a las 10:40 UTC
Pronóstico válido del 19 a las 12 UTC al 20 a las 12 UTC
Viento 7 kt del oeste-noroeste
Visibilidad 10 km o más
Escasas nubes a una altura de 4000 ft
Nubes dispersas a una altura de 10000 ft

TAF: LTCV 191040Z 1912/2012 30007KT 9999 FEW040 SCT100

Observaciones y pronósticos meteorológicos de más de 4000 aeropuertos (mensajes METAR y TAF).

Los puntos amarillos y rojos representan las estaciones disponibles.

Ponga el ratón en el punto deseado para ver el nombre de la estación.

Haga clic para ver las observaciones y los pronósticos meteorológicos.

Para cambiar el mapa : haga clic en los botones verdes con una cruz de color negro para hacer un zoom, en el botón verde con un guión para alejar o en las flechas verdes para mapas adyacentes.


METAR-TAF: